Terminal Aerodrome Forecast
Issued by NWS Wakefield, VA

Home | Current Version | Previous Version | Text Only | Print | Product List | Glossary On
Versions: 1 2 3 4 5 6 7 8 9 10 11 12 13 14 15 16 17 18 19 20
000
FTUS41 KAKQ 161100
TAFORF
TAF
KORF 161139Z 1612/1712 35018G28KT P6SM SCT040
     FM161600 01015G23KT P6SM SKC
     FM161900 03013G20KT P6SM SKC
     FM170000 04011KT P6SM SKC
     FM170900 05012KT P6SM BKN040=

USA.gov is the U.S. government's official web portal to all federal, state and local government web resources and services.